sensor_id;sensor_type;location;lat;lon;timestamp;P1;durP1;ratioP1;P2;durP2;ratioP2
64353;SDS011;50681;53.334;-6.536;2023-07-02T00:02:23;34.53;;;7.13;;
64353;SDS011;50681;53.334;-6.536;2023-07-02T00:04:49;29.23;;;7.78;;
64353;SDS011;50681;53.334;-6.536;2023-07-02T00:07:15;25.77;;;6.70;;
64353;SDS011;50681;53.334;-6.536;2023-07-02T00:09:41;25.07;;;6.37;;
64353;SDS011;50681;53.334;-6.536;2023-07-02T00:12:06;25.90;;;6.23;;
64353;SDS011;50681;53.334;-6.536;2023-07-02T00:14:32;22.77;;;6.72;;
64353;SDS011;50681;53.334;-6.536;2023-07-02T00:16:58;33.73;;;7.10;;
64353;SDS011;50681;53.334;-6.536;2023-07-02T00:19:24;27.92;;;7.32;;
64353;SDS011;50681;53.334;-6.536;2023-07-02T00:21:50;24.13;;;6.35;;
64353;SDS011;50681;53.334;-6.536;2023-07-02T00:24:15;26.83;;;6.80;;
64353;SDS011;50681;53.334;-6.536;2023-07-02T00:26:41;28.98;;;6.97;;
64353;SDS011;50681;53.334;-6.536;2023-07-02T00:29:08;23.70;;;7.32;;
64353;SDS011;50681;53.334;-6.536;2023-07-02T00:31:34;25.77;;;6.07;;
64353;SDS011;50681;53.334;-6.536;2023-07-02T00:34:00;31.55;;;7.43;;
64353;SDS011;50681;53.334;-6.536;2023-07-02T00:36:27;19.58;;;6.68;;
64353;SDS011;50681;53.334;-6.536;2023-07-02T00:38:53;19.67;;;6.93;;
64353;SDS011;50681;53.334;-6.536;2023-07-02T00:41:19;25.17;;;6.18;;
64353;SDS011;50681;53.334;-6.536;2023-07-02T00:43:45;25.77;;;6.70;;
64353;SDS011;50681;53.334;-6.536;2023-07-02T00:48:35;18.53;;;6.03;;
64353;SDS011;50681;53.334;-6.536;2023-07-02T00:51:03;20.33;;;6.47;;
64353;SDS011;50681;53.334;-6.536;2023-07-02T00:53:28;23.97;;;7.10;;
64353;SDS011;50681;53.334;-6.536;2023-07-02T00:55:54;36.70;;;7.18;;
64353;SDS011;50681;53.334;-6.536;2023-07-02T00:58:20;21.43;;;5.93;;
64353;SDS011;50681;53.334;-6.536;2023-07-02T01:00:46;18.58;;;6.53;;
64353;SDS011;50681;53.334;-6.536;2023-07-02T01:03:12;20.77;;;6.35;;
64353;SDS011;50681;53.334;-6.536;2023-07-02T01:05:37;18.67;;;6.63;;
64353;SDS011;50681;53.334;-6.536;2023-07-02T01:08:03;28.40;;;6.57;;
64353;SDS011;50681;53.334;-6.536;2023-07-02T01:10:30;24.98;;;5.95;;
64353;SDS011;50681;53.334;-6.536;2023-07-02T01:12:58;25.98;;;6.97;;
64353;SDS011;50681;53.334;-6.536;2023-07-02T01:15:30;22.27;;;6.90;;
64353;SDS011;50681;53.334;-6.536;2023-07-02T01:17:57;25.13;;;6.38;;
64353;SDS011;50681;53.334;-6.536;2023-07-02T01:20:22;24.40;;;6.23;;
64353;SDS011;50681;53.334;-6.536;2023-07-02T01:22:50;30.08;;;7.18;;
64353;SDS011;50681;53.334;-6.536;2023-07-02T01:25:16;24.58;;;6.57;;
64353;SDS011;50681;53.334;-6.536;2023-07-02T01:27:42;24.75;;;6.07;;
64353;SDS011;50681;53.334;-6.536;2023-07-02T01:30:08;18.27;;;5.05;;
64353;SDS011;50681;53.334;-6.536;2023-07-02T01:35:00;21.63;;;5.70;;
64353;SDS011;50681;53.334;-6.536;2023-07-02T01:37:26;33.95;;;5.43;;
64353;SDS011;50681;53.334;-6.536;2023-07-02T01:39:51;29.23;;;5.83;;
64353;SDS011;50681;53.334;-6.536;2023-07-02T01:42:20;26.93;;;5.77;;
64353;SDS011;50681;53.334;-6.536;2023-07-02T01:44:47;19.83;;;5.40;;
64353;SDS011;50681;53.334;-6.536;2023-07-02T01:47:13;27.02;;;5.90;;
64353;SDS011;50681;53.334;-6.536;2023-07-02T01:49:41;21.30;;;5.47;;
64353;SDS011;50681;53.334;-6.536;2023-07-02T01:52:07;24.58;;;6.13;;
64353;SDS011;50681;53.334;-6.536;2023-07-02T01:54:33;21.37;;;5.43;;
64353;SDS011;50681;53.334;-6.536;2023-07-02T01:56:59;30.13;;;5.00;;
64353;SDS011;50681;53.334;-6.536;2023-07-02T01:59:25;23.25;;;5.50;;
64353;SDS011;50681;53.334;-6.536;2023-07-02T02:01:51;23.90;;;5.07;;
64353;SDS011;50681;53.334;-6.536;2023-07-02T02:04:19;21.38;;;5.45;;
64353;SDS011;50681;53.334;-6.536;2023-07-02T02:06:44;29.70;;;6.00;;
64353;SDS011;50681;53.334;-6.536;2023-07-02T02:09:10;28.80;;;5.37;;
64353;SDS011;50681;53.334;-6.536;2023-07-02T02:11:39;24.87;;;6.43;;
64353;SDS011;50681;53.334;-6.536;2023-07-02T02:14:06;22.20;;;5.22;;
64353;SDS011;50681;53.334;-6.536;2023-07-02T02:16:32;21.13;;;5.83;;
64353;SDS011;50681;53.334;-6.536;2023-07-02T02:19:00;22.75;;;5.03;;
64353;SDS011;50681;53.334;-6.536;2023-07-02T02:21:26;23.30;;;5.63;;
64353;SDS011;50681;53.334;-6.536;2023-07-02T02:23:52;24.40;;;4.80;;
64353;SDS011;50681;53.334;-6.536;2023-07-02T02:26:17;23.77;;;5.63;;
64353;SDS011;50681;53.334;-6.536;2023-07-02T02:28:43;35.73;;;6.27;;
64353;SDS011;50681;53.334;-6.536;2023-07-02T02:31:08;27.97;;;5.73;;
64353;SDS011;50681;53.334;-6.536;2023-07-02T02:33:34;22.98;;;5.85;;
64353;SDS011;50681;53.334;-6.536;2023-07-02T02:36:00;31.98;;;5.47;;
64353;SDS011;50681;53.334;-6.536;2023-07-02T02:38:26;25.65;;;5.72;;
64353;SDS011;50681;53.334;-6.536;2023-07-02T02:40:52;24.40;;;5.47;;
64353;SDS011;50681;53.334;-6.536;2023-07-02T02:43:17;23.13;;;4.97;;
64353;SDS011;50681;53.334;-6.536;2023-07-02T02:45:43;37.63;;;5.73;;
64353;SDS011;50681;53.334;-6.536;2023-07-02T02:48:08;31.23;;;5.27;;
64353;SDS011;50681;53.334;-6.536;2023-07-02T02:50:34;21.30;;;5.53;;
64353;SDS011;50681;53.334;-6.536;2023-07-02T02:52:59;22.20;;;5.10;;
64353;SDS011;50681;53.334;-6.536;2023-07-02T02:55:25;28.33;;;5.30;;
64353;SDS011;50681;53.334;-6.536;2023-07-02T02:57:51;25.20;;;5.03;;
64353;SDS011;50681;53.334;-6.536;2023-07-02T03:00:16;31.50;;;4.97;;
64353;SDS011;50681;53.334;-6.536;2023-07-02T03:02:42;27.80;;;6.37;;
64353;SDS011;50681;53.334;-6.536;2023-07-02T03:05:08;21.27;;;4.57;;
64353;SDS011;50681;53.334;-6.536;2023-07-02T03:07:34;39.73;;;5.47;;
64353;SDS011;50681;53.334;-6.536;2023-07-02T03:12:25;21.25;;;4.47;;
64353;SDS011;50681;53.334;-6.536;2023-07-02T03:14:51;31.05;;;4.75;;
64353;SDS011;50681;53.334;-6.536;2023-07-02T03:17:19;24.55;;;4.30;;
64353;SDS011;50681;53.334;-6.536;2023-07-02T03:19:45;24.77;;;4.97;;
64353;SDS011;50681;53.334;-6.536;2023-07-02T03:22:11;27.55;;;5.68;;
64353;SDS011;50681;53.334;-6.536;2023-07-02T03:24:37;24.70;;;4.93;;
64353;SDS011;50681;53.334;-6.536;2023-07-02T03:27:03;34.00;;;5.53;;
64353;SDS011;50681;53.334;-6.536;2023-07-02T03:29:28;19.83;;;5.05;;
64353;SDS011;50681;53.334;-6.536;2023-07-02T03:31:54;32.50;;;5.33;;
64353;SDS011;50681;53.334;-6.536;2023-07-02T03:34:20;20.73;;;4.60;;
64353;SDS011;50681;53.334;-6.536;2023-07-02T03:36:47;25.20;;;4.45;;
64353;SDS011;50681;53.334;-6.536;2023-07-02T03:39:12;18.90;;;5.00;;
64353;SDS011;50681;53.334;-6.536;2023-07-02T03:41:38;22.80;;;4.47;;
64353;SDS011;50681;53.334;-6.536;2023-07-02T03:44:03;24.87;;;5.17;;
64353;SDS011;50681;53.334;-6.536;2023-07-02T03:46:29;24.87;;;4.70;;
64353;SDS011;50681;53.334;-6.536;2023-07-02T03:48:58;28.48;;;4.72;;
64353;SDS011;50681;53.334;-6.536;2023-07-02T03:51:23;29.98;;;5.20;;
64353;SDS011;50681;53.334;-6.536;2023-07-02T03:53:50;27.43;;;4.80;;
64353;SDS011;50681;53.334;-6.536;2023-07-02T03:56:15;17.25;;;3.80;;
64353;SDS011;50681;53.334;-6.536;2023-07-02T03:58:41;20.23;;;4.40;;
64353;SDS011;50681;53.334;-6.536;2023-07-02T04:01:06;28.63;;;4.82;;
64353;SDS011;50681;53.334;-6.536;2023-07-02T04:03:31;26.13;;;4.90;;
64353;SDS011;50681;53.334;-6.536;2023-07-02T04:05:57;18.10;;;4.30;;
64353;SDS011;50681;53.334;-6.536;2023-07-02T04:08:22;31.83;;;4.73;;
64353;SDS011;50681;53.334;-6.536;2023-07-02T04:10:50;29.60;;;4.93;;
64353;SDS011;50681;53.334;-6.536;2023-07-02T04:13:15;25.83;;;4.33;;
64353;SDS011;50681;53.334;-6.536;2023-07-02T04:15:44;32.25;;;5.10;;
64353;SDS011;50681;53.334;-6.536;2023-07-02T04:18:10;26.85;;;4.90;;
64353;SDS011;50681;53.334;-6.536;2023-07-02T04:20:35;22.70;;;4.80;;
64353;SDS011;50681;53.334;-6.536;2023-07-02T04:23:03;30.10;;;4.90;;
64353;SDS011;50681;53.334;-6.536;2023-07-02T04:25:32;29.42;;;5.03;;
64353;SDS011;50681;53.334;-6.536;2023-07-02T04:27:58;17.02;;;3.67;;
64353;SDS011;50681;53.334;-6.536;2023-07-02T04:30:23;24.93;;;4.83;;
64353;SDS011;50681;53.334;-6.536;2023-07-02T04:32:50;29.00;;;5.30;;
64353;SDS011;50681;53.334;-6.536;2023-07-02T04:35:16;36.40;;;6.25;;
64353;SDS011;50681;53.334;-6.536;2023-07-02T04:37:41;19.00;;;4.33;;
64353;SDS011;50681;53.334;-6.536;2023-07-02T04:40:06;24.30;;;5.13;;
64353;SDS011;50681;53.334;-6.536;2023-07-02T04:42:38;29.23;;;4.90;;
64353;SDS011;50681;53.334;-6.536;2023-07-02T04:45:05;25.00;;;5.78;;
64353;SDS011;50681;53.334;-6.536;2023-07-02T04:47:31;38.25;;;4.80;;
64353;SDS011;50681;53.334;-6.536;2023-07-02T04:49:57;27.73;;;5.40;;
64353;SDS011;50681;53.334;-6.536;2023-07-02T04:52:23;18.05;;;4.45;;
64353;SDS011;50681;53.334;-6.536;2023-07-02T04:54:49;29.83;;;5.13;;
64353;SDS011;50681;53.334;-6.536;2023-07-02T04:57:14;22.33;;;4.17;;
64353;SDS011;50681;53.334;-6.536;2023-07-02T04:59:43;25.87;;;4.53;;
64353;SDS011;50681;53.334;-6.536;2023-07-02T05:02:09;29.02;;;6.13;;
64353;SDS011;50681;53.334;-6.536;2023-07-02T05:04:35;23.90;;;4.55;;
64353;SDS011;50681;53.334;-6.536;2023-07-02T05:07:04;24.58;;;4.40;;
64353;SDS011;50681;53.334;-6.536;2023-07-02T05:09:30;26.43;;;5.00;;
64353;SDS011;50681;53.334;-6.536;2023-07-02T05:11:56;27.30;;;4.70;;
64353;SDS011;50681;53.334;-6.536;2023-07-02T05:14:22;27.10;;;5.57;;
64353;SDS011;50681;53.334;-6.536;2023-07-02T05:16:47;31.30;;;4.80;;
64353;SDS011;50681;53.334;-6.536;2023-07-02T05:19:13;28.15;;;4.47;;
64353;SDS011;50681;53.334;-6.536;2023-07-02T05:21:39;30.90;;;4.93;;
64353;SDS011;50681;53.334;-6.536;2023-07-02T05:24:04;32.10;;;4.53;;
64353;SDS011;50681;53.334;-6.536;2023-07-02T05:26:30;25.00;;;4.72;;
64353;SDS011;50681;53.334;-6.536;2023-07-02T05:28:55;28.60;;;5.37;;
64353;SDS011;50681;53.334;-6.536;2023-07-02T05:31:21;27.73;;;4.83;;
64353;SDS011;50681;53.334;-6.536;2023-07-02T05:33:46;27.47;;;5.03;;
64353;SDS011;50681;53.334;-6.536;2023-07-02T05:36:12;26.37;;;4.53;;
64353;SDS011;50681;53.334;-6.536;2023-07-02T05:38:38;24.88;;;4.85;;
64353;SDS011;50681;53.334;-6.536;2023-07-02T05:41:03;27.20;;;4.70;;
64353;SDS011;50681;53.334;-6.536;2023-07-02T05:43:29;21.83;;;3.90;;
64353;SDS011;50681;53.334;-6.536;2023-07-02T05:45:54;24.88;;;4.38;;
64353;SDS011;50681;53.334;-6.536;2023-07-02T05:48:20;21.27;;;4.25;;
64353;SDS011;50681;53.334;-6.536;2023-07-02T05:50:46;31.37;;;4.43;;
64353;SDS011;50681;53.334;-6.536;2023-07-02T05:53:11;24.40;;;4.50;;
64353;SDS011;50681;53.334;-6.536;2023-07-02T05:55:37;26.93;;;4.63;;
64353;SDS011;50681;53.334;-6.536;2023-07-02T05:58:02;26.40;;;4.43;;
64353;SDS011;50681;53.334;-6.536;2023-07-02T06:00:28;24.57;;;4.80;;
64353;SDS011;50681;53.334;-6.536;2023-07-02T06:02:54;22.88;;;4.60;;
64353;SDS011;50681;53.334;-6.536;2023-07-02T06:05:20;19.53;;;4.80;;
64353;SDS011;50681;53.334;-6.536;2023-07-02T06:07:45;15.33;;;4.50;;
64353;SDS011;50681;53.334;-6.536;2023-07-02T06:10:11;23.90;;;4.90;;
64353;SDS011;50681;53.334;-6.536;2023-07-02T06:12:36;17.13;;;3.57;;
64353;SDS011;50681;53.334;-6.536;2023-07-02T06:15:02;24.17;;;4.57;;
64353;SDS011;50681;53.334;-6.536;2023-07-02T06:17:27;27.98;;;4.97;;
64353;SDS011;50681;53.334;-6.536;2023-07-02T06:19:55;14.98;;;3.80;;
64353;SDS011;50681;53.334;-6.536;2023-07-02T06:22:21;28.38;;;4.38;;
64353;SDS011;50681;53.334;-6.536;2023-07-02T06:24:47;18.60;;;3.90;;
64353;SDS011;50681;53.334;-6.536;2023-07-02T06:27:12;30.57;;;4.87;;
64353;SDS011;50681;53.334;-6.536;2023-07-02T06:29:38;24.60;;;4.30;;
64353;SDS011;50681;53.334;-6.536;2023-07-02T06:32:03;29.27;;;4.27;;
64353;SDS011;50681;53.334;-6.536;2023-07-02T06:34:29;23.48;;;4.13;;
64353;SDS011;50681;53.334;-6.536;2023-07-02T06:36:54;18.33;;;3.70;;
64353;SDS011;50681;53.334;-6.536;2023-07-02T06:39:20;20.70;;;3.80;;
64353;SDS011;50681;53.334;-6.536;2023-07-02T06:41:46;28.35;;;4.25;;
64353;SDS011;50681;53.334;-6.536;2023-07-02T06:44:11;17.37;;;3.50;;
64353;SDS011;50681;53.334;-6.536;2023-07-02T06:46:37;13.18;;;2.83;;
64353;SDS011;50681;53.334;-6.536;2023-07-02T06:49:02;23.77;;;4.50;;
64353;SDS011;50681;53.334;-6.536;2023-07-02T06:51:28;20.10;;;3.97;;
64353;SDS011;50681;53.334;-6.536;2023-07-02T06:53:54;18.40;;;3.78;;
64353;SDS011;50681;53.334;-6.536;2023-07-02T06:56:20;20.55;;;4.07;;
64353;SDS011;50681;53.334;-6.536;2023-07-02T06:58:45;22.40;;;3.97;;
64353;SDS011;50681;53.334;-6.536;2023-07-02T07:01:11;19.33;;;3.47;;
64353;SDS011;50681;53.334;-6.536;2023-07-02T07:03:36;28.10;;;4.40;;
64353;SDS011;50681;53.334;-6.536;2023-07-02T07:06:02;16.90;;;3.85;;
64353;SDS011;50681;53.334;-6.536;2023-07-02T07:08:28;18.63;;;3.47;;
64353;SDS011;50681;53.334;-6.536;2023-07-02T07:10:54;17.60;;;3.55;;
64353;SDS011;50681;53.334;-6.536;2023-07-02T07:13:19;27.00;;;4.37;;
64353;SDS011;50681;53.334;-6.536;2023-07-02T07:15:45;24.97;;;4.47;;
64353;SDS011;50681;53.334;-6.536;2023-07-02T07:18:10;26.33;;;4.03;;
64353;SDS011;50681;53.334;-6.536;2023-07-02T07:20:36;11.83;;;3.00;;
64353;SDS011;50681;53.334;-6.536;2023-07-02T07:23:04;22.48;;;4.00;;
64353;SDS011;50681;53.334;-6.536;2023-07-02T07:25:30;19.73;;;3.88;;
64353;SDS011;50681;53.334;-6.536;2023-07-02T07:27:56;20.87;;;4.13;;
64353;SDS011;50681;53.334;-6.536;2023-07-02T07:30:22;21.63;;;4.60;;
64353;SDS011;50681;53.334;-6.536;2023-07-02T07:32:51;22.93;;;4.47;;
64353;SDS011;50681;53.334;-6.536;2023-07-02T07:35:18;20.67;;;3.20;;
64353;SDS011;50681;53.334;-6.536;2023-07-02T07:37:44;19.23;;;3.42;;
64353;SDS011;50681;53.334;-6.536;2023-07-02T07:40:09;14.88;;;3.17;;
64353;SDS011;50681;53.334;-6.536;2023-07-02T07:42:36;25.75;;;3.72;;
64353;SDS011;50681;53.334;-6.536;2023-07-02T07:45:02;16.87;;;3.50;;
64353;SDS011;50681;53.334;-6.536;2023-07-02T07:47:28;17.90;;;3.22;;
64353;SDS011;50681;53.334;-6.536;2023-07-02T07:49:53;22.27;;;3.77;;
64353;SDS011;50681;53.334;-6.536;2023-07-02T07:52:20;22.40;;;3.70;;
64353;SDS011;50681;53.334;-6.536;2023-07-02T07:54:45;22.27;;;3.88;;
64353;SDS011;50681;53.334;-6.536;2023-07-02T07:57:11;14.83;;;3.33;;
64353;SDS011;50681;53.334;-6.536;2023-07-02T07:59:36;14.50;;;2.87;;
64353;SDS011;50681;53.334;-6.536;2023-07-02T08:02:02;19.57;;;3.57;;
64353;SDS011;50681;53.334;-6.536;2023-07-02T08:04:27;20.67;;;3.88;;
64353;SDS011;50681;53.334;-6.536;2023-07-02T08:06:53;23.83;;;4.60;;
64353;SDS011;50681;53.334;-6.536;2023-07-02T08:11:45;23.00;;;3.17;;
64353;SDS011;50681;53.334;-6.536;2023-07-02T08:14:11;16.38;;;3.47;;
64353;SDS011;50681;53.334;-6.536;2023-07-02T08:16:37;16.42;;;3.35;;
64353;SDS011;50681;53.334;-6.536;2023-07-02T08:19:03;11.83;;;2.47;;
64353;SDS011;50681;53.334;-6.536;2023-07-02T08:21:28;10.02;;;3.03;;
64353;SDS011;50681;53.334;-6.536;2023-07-02T08:23:54;15.23;;;2.97;;
64353;SDS011;50681;53.334;-6.536;2023-07-02T08:26:19;18.03;;;2.73;;
64353;SDS011;50681;53.334;-6.536;2023-07-02T08:28:47;14.10;;;2.80;;
64353;SDS011;50681;53.334;-6.536;2023-07-02T08:31:13;21.30;;;3.90;;
64353;SDS011;50681;53.334;-6.536;2023-07-02T08:33:38;14.93;;;3.17;;
64353;SDS011;50681;53.334;-6.536;2023-07-02T08:36:04;13.23;;;2.73;;
64353;SDS011;50681;53.334;-6.536;2023-07-02T08:38:29;12.95;;;2.78;;
64353;SDS011;50681;53.334;-6.536;2023-07-02T08:40:55;15.10;;;3.30;;
64353;SDS011;50681;53.334;-6.536;2023-07-02T08:43:21;16.67;;;2.73;;
64353;SDS011;50681;53.334;-6.536;2023-07-02T08:45:48;12.13;;;2.65;;
64353;SDS011;50681;53.334;-6.536;2023-07-02T08:48:14;14.83;;;2.43;;
64353;SDS011;50681;53.334;-6.536;2023-07-02T08:50:39;16.52;;;3.42;;
64353;SDS011;50681;53.334;-6.536;2023-07-02T08:53:05;14.83;;;3.07;;
64353;SDS011;50681;53.334;-6.536;2023-07-02T08:55:30;9.50;;;2.57;;
64353;SDS011;50681;53.334;-6.536;2023-07-02T08:57:56;15.50;;;2.73;;
64353;SDS011;50681;53.334;-6.536;2023-07-02T09:00:25;8.05;;;2.08;;
64353;SDS011;50681;53.334;-6.536;2023-07-02T09:02:51;15.07;;;2.80;;
64353;SDS011;50681;53.334;-6.536;2023-07-02T09:05:16;11.13;;;2.05;;
64353;SDS011;50681;53.334;-6.536;2023-07-02T09:07:46;12.85;;;2.20;;
64353;SDS011;50681;53.334;-6.536;2023-07-02T09:10:24;14.13;;;2.70;;
64353;SDS011;50681;53.334;-6.536;2023-07-02T09:13:02;9.27;;;2.83;;
64353;SDS011;50681;53.334;-6.536;2023-07-02T09:15:40;13.77;;;2.45;;
64353;SDS011;50681;53.334;-6.536;2023-07-02T09:18:22;17.98;;;3.22;;
64353;SDS011;50681;53.334;-6.536;2023-07-02T09:20:50;15.18;;;2.38;;
64353;SDS011;50681;53.334;-6.536;2023-07-02T09:23:16;14.00;;;2.47;;
64353;SDS011;50681;53.334;-6.536;2023-07-02T09:25:42;11.65;;;2.83;;
64353;SDS011;50681;53.334;-6.536;2023-07-02T09:28:14;18.55;;;3.10;;
64353;SDS011;50681;53.334;-6.536;2023-07-02T09:30:50;17.38;;;2.72;;
64353;SDS011;50681;53.334;-6.536;2023-07-02T09:33:17;11.50;;;2.47;;
64353;SDS011;50681;53.334;-6.536;2023-07-02T09:35:43;8.10;;;2.73;;
64353;SDS011;50681;53.334;-6.536;2023-07-02T09:38:09;15.43;;;2.72;;
64353;SDS011;50681;53.334;-6.536;2023-07-02T09:40:37;12.32;;;2.70;;
64353;SDS011;50681;53.334;-6.536;2023-07-02T09:43:14;12.48;;;2.40;;
64353;SDS011;50681;53.334;-6.536;2023-07-02T09:45:42;13.75;;;2.70;;
64353;SDS011;50681;53.334;-6.536;2023-07-02T09:48:09;15.70;;;2.90;;
64353;SDS011;50681;53.334;-6.536;2023-07-02T09:50:38;12.30;;;2.15;;
64353;SDS011;50681;53.334;-6.536;2023-07-02T09:53:05;15.95;;;3.30;;
64353;SDS011;50681;53.334;-6.536;2023-07-02T09:55:31;12.80;;;2.70;;
64353;SDS011;50681;53.334;-6.536;2023-07-02T09:57:57;11.82;;;2.60;;
64353;SDS011;50681;53.334;-6.536;2023-07-02T10:00:22;13.30;;;3.15;;
64353;SDS011;50681;53.334;-6.536;2023-07-02T10:02:48;13.37;;;1.97;;
64353;SDS011;50681;53.334;-6.536;2023-07-02T10:07:58;13.07;;;2.58;;
64353;SDS011;50681;53.334;-6.536;2023-07-02T10:10:30;15.63;;;3.00;;
64353;SDS011;50681;53.334;-6.536;2023-07-02T10:12:57;12.93;;;2.42;;
64353;SDS011;50681;53.334;-6.536;2023-07-02T10:15:26;13.32;;;2.35;;
64353;SDS011;50681;53.334;-6.536;2023-07-02T10:17:57;11.73;;;2.67;;
64353;SDS011;50681;53.334;-6.536;2023-07-02T10:23:04;11.88;;;2.30;;
64353;SDS011;50681;53.334;-6.536;2023-07-02T10:25:34;21.67;;;2.65;;
64353;SDS011;50681;53.334;-6.536;2023-07-02T10:28:14;11.93;;;2.28;;
64353;SDS011;50681;53.334;-6.536;2023-07-02T10:30:42;11.43;;;2.72;;
64353;SDS011;50681;53.334;-6.536;2023-07-02T10:35:34;8.85;;;1.98;;
64353;SDS011;50681;53.334;-6.536;2023-07-02T10:38:00;14.27;;;2.30;;
64353;SDS011;50681;53.334;-6.536;2023-07-02T10:40:26;12.50;;;2.80;;
64353;SDS011;50681;53.334;-6.536;2023-07-02T10:42:52;11.17;;;2.57;;
64353;SDS011;50681;53.334;-6.536;2023-07-02T10:47:43;11.77;;;2.35;;
64353;SDS011;50681;53.334;-6.536;2023-07-02T10:50:16;9.23;;;2.28;;
64353;SDS011;50681;53.334;-6.536;2023-07-02T10:52:46;8.77;;;2.65;;
64353;SDS011;50681;53.334;-6.536;2023-07-02T10:57:43;10.60;;;2.03;;
64353;SDS011;50681;53.334;-6.536;2023-07-02T11:00:09;11.87;;;2.33;;
64353;SDS011;50681;53.334;-6.536;2023-07-02T11:02:38;9.95;;;2.42;;
64353;SDS011;50681;53.334;-6.536;2023-07-02T11:05:04;12.88;;;2.65;;
64353;SDS011;50681;53.334;-6.536;2023-07-02T11:07:36;9.90;;;2.00;;
64353;SDS011;50681;53.334;-6.536;2023-07-02T11:10:02;11.68;;;2.10;;
64353;SDS011;50681;53.334;-6.536;2023-07-02T11:12:29;9.48;;;2.20;;
64353;SDS011;50681;53.334;-6.536;2023-07-02T11:14:55;9.70;;;2.00;;
64353;SDS011;50681;53.334;-6.536;2023-07-02T11:17:27;6.68;;;1.98;;
64353;SDS011;50681;53.334;-6.536;2023-07-02T11:19:52;10.20;;;1.95;;
64353;SDS011;50681;53.334;-6.536;2023-07-02T11:22:18;5.22;;;1.40;;
64353;SDS011;50681;53.334;-6.536;2023-07-02T11:24:43;14.23;;;2.13;;
64353;SDS011;50681;53.334;-6.536;2023-07-02T11:27:09;11.70;;;2.27;;
64353;SDS011;50681;53.334;-6.536;2023-07-02T11:29:46;10.77;;;2.00;;
64353;SDS011;50681;53.334;-6.536;2023-07-02T11:32:15;8.40;;;1.52;;
64353;SDS011;50681;53.334;-6.536;2023-07-02T11:34:40;13.65;;;3.13;;
64353;SDS011;50681;53.334;-6.536;2023-07-02T11:37:06;11.20;;;2.17;;
64353;SDS011;50681;53.334;-6.536;2023-07-02T11:39:31;11.67;;;2.20;;
64353;SDS011;50681;53.334;-6.536;2023-07-02T11:41:57;12.32;;;2.72;;
64353;SDS011;50681;53.334;-6.536;2023-07-02T11:44:23;12.32;;;2.38;;
64353;SDS011;50681;53.334;-6.536;2023-07-02T11:46:48;8.37;;;2.13;;
64353;SDS011;50681;53.334;-6.536;2023-07-02T11:49:14;12.90;;;2.45;;
64353;SDS011;50681;53.334;-6.536;2023-07-02T11:51:40;7.25;;;2.25;;
64353;SDS011;50681;53.334;-6.536;2023-07-02T11:54:06;10.65;;;1.98;;
64353;SDS011;50681;53.334;-6.536;2023-07-02T11:56:32;9.15;;;1.77;;
64353;SDS011;50681;53.334;-6.536;2023-07-02T11:58:58;8.98;;;2.13;;
64353;SDS011;50681;53.334;-6.536;2023-07-02T12:01:24;6.18;;;1.45;;
64353;SDS011;50681;53.334;-6.536;2023-07-02T12:03:50;6.45;;;1.90;;
64353;SDS011;50681;53.334;-6.536;2023-07-02T12:06:16;5.53;;;1.37;;
64353;SDS011;50681;53.334;-6.536;2023-07-02T12:08:41;6.13;;;1.93;;
64353;SDS011;50681;53.334;-6.536;2023-07-02T12:11:07;5.37;;;1.57;;
64353;SDS011;50681;53.334;-6.536;2023-07-02T12:13:32;2.88;;;1.35;;
64353;SDS011;50681;53.334;-6.536;2023-07-02T12:15:58;5.32;;;1.50;;
64353;SDS011;50681;53.334;-6.536;2023-07-02T12:18:24;9.77;;;1.77;;
64353;SDS011;50681;53.334;-6.536;2023-07-02T12:20:49;9.43;;;2.23;;
64353;SDS011;50681;53.334;-6.536;2023-07-02T12:23:14;7.55;;;2.10;;
64353;SDS011;50681;53.334;-6.536;2023-07-02T12:25:40;11.95;;;2.65;;
64353;SDS011;50681;53.334;-6.536;2023-07-02T12:28:06;9.17;;;2.20;;
64353;SDS011;50681;53.334;-6.536;2023-07-02T12:30:32;8.68;;;1.90;;
64353;SDS011;50681;53.334;-6.536;2023-07-02T12:32:57;8.63;;;1.80;;
64353;SDS011;50681;53.334;-6.536;2023-07-02T12:35:23;6.45;;;1.70;;
64353;SDS011;50681;53.334;-6.536;2023-07-02T12:37:52;6.22;;;1.55;;
64353;SDS011;50681;53.334;-6.536;2023-07-02T12:40:18;8.85;;;2.50;;
64353;SDS011;50681;53.334;-6.536;2023-07-02T12:42:45;8.38;;;1.80;;
64353;SDS011;50681;53.334;-6.536;2023-07-02T12:45:12;6.88;;;1.85;;
64353;SDS011;50681;53.334;-6.536;2023-07-02T12:47:39;5.72;;;1.63;;
64353;SDS011;50681;53.334;-6.536;2023-07-02T12:50:05;7.28;;;1.77;;
64353;SDS011;50681;53.334;-6.536;2023-07-02T12:54:56;5.50;;;1.45;;
64353;SDS011;50681;53.334;-6.536;2023-07-02T12:57:22;14.40;;;1.30;;
64353;SDS011;50681;53.334;-6.536;2023-07-02T12:59:47;8.70;;;2.42;;
64353;SDS011;50681;53.334;-6.536;2023-07-02T13:02:13;6.77;;;1.97;;
64353;SDS011;50681;53.334;-6.536;2023-07-02T13:04:38;8.55;;;1.80;;
64353;SDS011;50681;53.334;-6.536;2023-07-02T13:07:05;7.28;;;1.50;;
64353;SDS011;50681;53.334;-6.536;2023-07-02T13:09:30;8.23;;;1.95;;
64353;SDS011;50681;53.334;-6.536;2023-07-02T13:11:56;8.95;;;1.42;;
64353;SDS011;50681;53.334;-6.536;2023-07-02T13:14:21;3.83;;;1.17;;
64353;SDS011;50681;53.334;-6.536;2023-07-02T13:16:47;5.72;;;1.40;;
64353;SDS011;50681;53.334;-6.536;2023-07-02T13:19:13;7.50;;;1.50;;
64353;SDS011;50681;53.334;-6.536;2023-07-02T13:21:40;6.50;;;1.45;;
64353;SDS011;50681;53.334;-6.536;2023-07-02T13:24:05;6.53;;;1.45;;
64353;SDS011;50681;53.334;-6.536;2023-07-02T13:26:31;5.80;;;2.10;;
64353;SDS011;50681;53.334;-6.536;2023-07-02T13:28:56;11.27;;;1.57;;
64353;SDS011;50681;53.334;-6.536;2023-07-02T13:31:22;6.63;;;1.75;;
64353;SDS011;50681;53.334;-6.536;2023-07-02T13:33:48;5.22;;;1.65;;
64353;SDS011;50681;53.334;-6.536;2023-07-02T13:36:15;5.60;;;1.40;;
64353;SDS011;50681;53.334;-6.536;2023-07-02T13:38:43;5.90;;;1.58;;
64353;SDS011;50681;53.334;-6.536;2023-07-02T13:41:11;9.75;;;1.88;;
64353;SDS011;50681;53.334;-6.536;2023-07-02T13:43:38;5.05;;;1.60;;
64353;SDS011;50681;53.334;-6.536;2023-07-02T13:46:06;10.95;;;1.90;;
64353;SDS011;50681;53.334;-6.536;2023-07-02T13:48:31;10.45;;;2.10;;
64353;SDS011;50681;53.334;-6.536;2023-07-02T13:50:57;4.35;;;1.40;;
64353;SDS011;50681;53.334;-6.536;2023-07-02T13:53:23;7.65;;;1.75;;
64353;SDS011;50681;53.334;-6.536;2023-07-02T13:55:48;4.57;;;1.52;;
64353;SDS011;50681;53.334;-6.536;2023-07-02T13:58:14;12.93;;;1.50;;
64353;SDS011;50681;53.334;-6.536;2023-07-02T14:00:43;9.50;;;1.80;;
64353;SDS011;50681;53.334;-6.536;2023-07-02T14:03:19;9.82;;;1.90;;
64353;SDS011;50681;53.334;-6.536;2023-07-02T14:05:44;10.48;;;2.40;;
64353;SDS011;50681;53.334;-6.536;2023-07-02T14:08:17;8.40;;;1.88;;
64353;SDS011;50681;53.334;-6.536;2023-07-02T14:10:47;9.32;;;1.80;;
64353;SDS011;50681;53.334;-6.536;2023-07-02T14:13:18;7.40;;;1.75;;
64353;SDS011;50681;53.334;-6.536;2023-07-02T14:15:43;7.15;;;1.90;;
64353;SDS011;50681;53.334;-6.536;2023-07-02T14:18:12;10.32;;;1.98;;
64353;SDS011;50681;53.334;-6.536;2023-07-02T14:20:37;8.70;;;1.80;;
64353;SDS011;50681;53.334;-6.536;2023-07-02T14:23:04;6.72;;;1.48;;
64353;SDS011;50681;53.334;-6.536;2023-07-02T14:25:32;4.40;;;1.30;;
64353;SDS011;50681;53.334;-6.536;2023-07-02T14:27:58;6.65;;;1.27;;
64353;SDS011;50681;53.334;-6.536;2023-07-02T14:30:24;5.75;;;1.23;;
64353;SDS011;50681;53.334;-6.536;2023-07-02T14:32:59;6.38;;;1.50;;
64353;SDS011;50681;53.334;-6.536;2023-07-02T14:35:40;7.78;;;2.60;;
64353;SDS011;50681;53.334;-6.536;2023-07-02T14:38:06;6.65;;;1.48;;
64353;SDS011;50681;53.334;-6.536;2023-07-02T14:40:32;2.78;;;1.10;;
64353;SDS011;50681;53.334;-6.536;2023-07-02T14:43:00;5.72;;;1.50;;
64353;SDS011;50681;53.334;-6.536;2023-07-02T14:45:29;6.85;;;1.42;;